createdAt,value
2018-07-21T16:18:51.036Z,8.83
2018-07-21T16:21:26.224Z,8.30
2018-07-21T16:23:57.032Z,8.03
2018-07-21T16:26:24.820Z,8.43
2018-07-21T16:28:57.690Z,6.97
2018-07-21T16:31:32.475Z,7.20
2018-07-21T16:34:04.424Z,7.90
2018-07-21T16:36:37.074Z,7.83
2018-07-21T16:39:10.767Z,7.80
2018-07-21T16:41:39.347Z,7.83
2018-07-21T16:44:10.078Z,8.83
2018-07-21T16:46:38.790Z,7.70
2018-07-21T16:49:07.381Z,8.50
2018-07-21T16:51:41.388Z,7.30
2018-07-21T16:54:13.694Z,7.65
2018-07-21T16:56:42.672Z,7.72
2018-07-21T16:59:14.013Z,7.80
2018-07-21T17:01:45.182Z,10.13
2018-07-21T17:04:16.489Z,7.28
2018-07-21T17:06:49.684Z,7.22
2018-07-21T17:09:20.228Z,6.75
2018-07-21T17:11:48.907Z,5.97
2018-07-21T17:14:17.885Z,5.10
2018-07-21T17:16:48.135Z,4.90
2018-07-21T17:19:16.403Z,4.47
2018-07-21T17:21:45.093Z,4.90
2018-07-21T17:24:13.302Z,3.92
2018-07-21T17:26:41.057Z,3.62
2018-07-21T17:29:10.345Z,4.00
2018-07-21T17:31:38.389Z,4.00
2018-07-21T17:34:07.227Z,4.47
2018-07-21T17:36:38.968Z,4.22
2018-07-21T17:39:14.815Z,3.83
2018-07-21T17:41:44.373Z,3.30
2018-07-21T17:44:14.088Z,3.35
2018-07-21T17:46:42.862Z,3.17
2018-07-21T17:49:10.746Z,3.33
2018-07-21T17:51:38.488Z,3.47
2018-07-21T17:54:06.267Z,2.90
2018-07-21T17:56:34.068Z,3.00
2018-07-21T17:59:02.020Z,3.65
2018-07-21T18:01:30.144Z,3.20
2018-07-21T18:03:58.805Z,3.10
2018-07-21T18:06:27.588Z,2.95
2018-07-21T18:08:56.038Z,3.10
2018-07-21T18:11:26.179Z,3.27
2018-07-21T18:13:53.939Z,3.30
2018-07-21T18:16:22.703Z,3.60
2018-07-21T18:18:50.571Z,3.75
2018-07-21T18:21:18.348Z,3.12
2018-07-21T18:23:46.131Z,3.70
2018-07-21T18:26:13.868Z,3.45
2018-07-21T18:28:41.664Z,3.25
2018-07-21T18:31:09.415Z,3.22
2018-07-21T18:33:37.189Z,3.25
2018-07-21T18:36:04.960Z,3.25
2018-07-21T18:38:32.811Z,3.70
2018-07-21T18:41:00.575Z,3.50
2018-07-21T18:43:28.343Z,3.90
2018-07-21T18:45:56.086Z,3.83
2018-07-21T18:48:23.820Z,3.22
2018-07-21T18:50:51.672Z,3.77
2018-07-21T18:53:19.429Z,3.60
2018-07-21T18:55:47.262Z,3.60
2018-07-21T18:58:15.092Z,3.40
2018-07-21T19:00:42.795Z,4.12
2018-07-21T19:03:10.609Z,4.35
2018-07-21T19:05:38.340Z,4.17
2018-07-21T19:08:06.080Z,4.35
2018-07-21T19:10:33.806Z,4.65
2018-07-21T19:13:01.613Z,4.45
2018-07-21T19:15:34.748Z,4.10
2018-07-21T19:18:02.522Z,4.53
2018-07-21T19:20:36.740Z,4.05
2018-07-21T19:23:04.817Z,4.60
2018-07-21T19:25:38.128Z,4.37
2018-07-21T19:28:05.924Z,4.75
2018-07-21T19:30:34.205Z,4.78
2018-07-21T19:33:01.933Z,4.08
2018-07-21T19:35:30.772Z,5.00
2018-07-21T19:37:58.924Z,5.53
2018-07-21T19:40:26.707Z,4.92
2018-07-21T19:42:54.695Z,4.78
2018-07-21T19:45:22.447Z,5.10
2018-07-21T19:47:50.251Z,4.75
2018-07-21T19:50:17.956Z,5.53
2018-07-21T19:52:45.705Z,5.45
2018-07-21T19:55:13.530Z,5.78
2018-07-21T19:57:41.377Z,5.80
2018-07-21T20:00:09.300Z,6.28
2018-07-21T20:02:37.110Z,5.70
2018-07-21T20:05:04.939Z,5.90
2018-07-21T20:07:32.679Z,5.75
2018-07-21T20:10:00.480Z,6.15
2018-07-21T20:12:28.223Z,5.75
2018-07-21T20:14:55.908Z,6.75
2018-07-21T20:17:23.778Z,6.55
2018-07-21T20:19:51.495Z,6.47
2018-07-21T20:22:19.317Z,6.85
2018-07-21T20:24:47.056Z,6.85
2018-07-21T20:27:14.849Z,6.20
2018-07-21T20:29:42.562Z,6.30
2018-07-21T20:32:10.511Z,6.60
2018-07-21T20:34:38.257Z,6.67
2018-07-21T20:37:06.068Z,6.85
2018-07-21T20:39:33.891Z,6.55
2018-07-21T20:42:01.634Z,7.03
2018-07-21T20:44:29.481Z,6.53
2018-07-21T20:46:57.304Z,6.55
2018-07-21T20:49:25.103Z,7.33
2018-07-21T20:51:52.831Z,7.37
2018-07-21T20:54:20.651Z,5.87
2018-07-21T20:56:48.412Z,6.78
2018-07-21T20:59:16.250Z,6.60
2018-07-21T21:01:44.096Z,7.30
2018-07-21T21:04:11.907Z,6.47
2018-07-21T21:06:39.630Z,7.25
2018-07-21T21:09:08.900Z,6.37
2018-07-21T21:11:36.660Z,6.80
2018-07-21T21:14:04.413Z,7.25
2018-07-21T21:16:32.134Z,8.25
2018-07-21T21:18:59.855Z,8.20
2018-07-21T21:21:27.733Z,8.80
2018-07-21T21:23:55.449Z,9.53
2018-07-21T21:26:23.211Z,8.60
2018-07-21T21:28:51.004Z,7.92
2018-07-21T21:31:18.721Z,8.40
2018-07-21T21:33:46.481Z,8.70
2018-07-21T21:36:14.237Z,7.67
2018-07-21T21:38:42.092Z,9.03
2018-07-21T21:41:09.841Z,8.20
2018-07-21T21:43:37.777Z,8.13
2018-07-21T21:46:05.813Z,7.47
2018-07-21T21:48:33.531Z,7.47
2018-07-21T21:51:01.270Z,8.55
2018-07-21T21:53:28.975Z,8.50
2018-07-21T21:55:56.729Z,9.48
2018-07-21T21:58:24.562Z,9.83
2018-07-21T22:01:01.708Z,8.90
2018-07-21T22:03:30.181Z,9.33
2018-07-21T22:05:58.434Z,9.83
2018-07-21T22:08:26.199Z,9.18
2018-07-21T22:10:53.937Z,10.10
2018-07-21T22:13:21.763Z,9.80
2018-07-21T22:15:49.465Z,9.93
2018-07-21T22:18:17.461Z,9.60
2018-07-21T22:20:45.231Z,10.00
2018-07-21T22:23:12.940Z,10.15
2018-07-21T22:25:40.647Z,11.78
2018-07-21T22:28:08.363Z,11.05
2018-07-21T22:30:36.061Z,11.35
2018-07-21T22:33:04.068Z,11.60
2018-07-21T22:35:31.974Z,11.70
2018-07-21T22:37:59.924Z,11.75
2018-07-21T22:40:27.620Z,11.95
2018-07-21T22:42:55.327Z,12.33
2018-07-21T22:45:23.073Z,12.58
2018-07-21T22:47:50.908Z,11.90
2018-07-21T22:50:18.637Z,11.50
2018-07-21T22:52:46.338Z,12.95
2018-07-21T22:55:14.139Z,12.33
2018-07-21T22:57:42.048Z,11.18
2018-07-21T23:00:09.746Z,11.68
2018-07-21T23:02:38.006Z,11.38
2018-07-21T23:05:05.855Z,12.75
2018-07-21T23:07:33.515Z,12.43
2018-07-21T23:10:01.369Z,11.83
2018-07-21T23:12:29.032Z,11.05
2018-07-21T23:14:56.753Z,11.80
2018-07-21T23:17:24.414Z,11.95
2018-07-21T23:19:52.245Z,12.03
2018-07-21T23:22:19.904Z,12.80
2018-07-21T23:24:47.580Z,14.40
2018-07-21T23:27:15.288Z,12.98
2018-07-21T23:29:42.995Z,13.03
2018-07-21T23:32:10.671Z,14.07
2018-07-21T23:34:38.319Z,15.03
2018-07-21T23:37:06.145Z,15.00
2018-07-21T23:39:33.960Z,13.53
2018-07-21T23:42:01.685Z,13.43
2018-07-21T23:44:29.375Z,13.58
2018-07-21T23:46:57.055Z,13.78
2018-07-21T23:49:24.723Z,14.93
2018-07-21T23:51:52.631Z,14.85
2018-07-21T23:54:20.309Z,13.22
2018-07-21T23:56:48.008Z,14.15
2018-07-21T23:59:15.796Z,13.83
